sensor_id;sensor_type;location;lat;lon;timestamp;P1;durP1;ratioP1;P2;durP2;ratioP2
14599;SDS011;7386;45.586;12.854;2023-04-24T00:01:55;17.20;;;15.03;;
14599;SDS011;7386;45.586;12.854;2023-04-24T00:04:26;18.77;;;15.80;;
14599;SDS011;7386;45.586;12.854;2023-04-24T00:06:55;20.90;;;14.97;;
14599;SDS011;7386;45.586;12.854;2023-04-24T00:09:26;16.97;;;15.17;;
14599;SDS011;7386;45.586;12.854;2023-04-24T00:11:55;19.33;;;14.40;;
14599;SDS011;7386;45.586;12.854;2023-04-24T00:14:23;18.40;;;14.83;;
14599;SDS011;7386;45.586;12.854;2023-04-24T00:16:52;16.87;;;13.97;;
14599;SDS011;7386;45.586;12.854;2023-04-24T00:19:20;19.73;;;15.37;;
14599;SDS011;7386;45.586;12.854;2023-04-24T00:21:50;21.10;;;14.67;;
14599;SDS011;7386;45.586;12.854;2023-04-24T00:24:19;21.50;;;14.40;;
14599;SDS011;7386;45.586;12.854;2023-04-24T00:26:47;22.10;;;14.67;;
14599;SDS011;7386;45.586;12.854;2023-04-24T00:29:16;20.10;;;14.80;;
14599;SDS011;7386;45.586;12.854;2023-04-24T00:31:44;20.27;;;14.20;;
14599;SDS011;7386;45.586;12.854;2023-04-24T00:34:13;19.40;;;14.60;;
14599;SDS011;7386;45.586;12.854;2023-04-24T00:36:41;23.40;;;15.10;;
14599;SDS011;7386;45.586;12.854;2023-04-24T00:39:11;20.60;;;13.23;;
14599;SDS011;7386;45.586;12.854;2023-04-24T00:41:39;16.97;;;12.07;;
14599;SDS011;7386;45.586;12.854;2023-04-24T00:44:08;17.87;;;11.77;;
14599;SDS011;7386;45.586;12.854;2023-04-24T00:46:37;16.10;;;11.67;;
14599;SDS011;7386;45.586;12.854;2023-04-24T00:49:06;17.20;;;11.50;;
14599;SDS011;7386;45.586;12.854;2023-04-24T00:51:34;20.20;;;10.90;;
14599;SDS011;7386;45.586;12.854;2023-04-24T00:54:03;15.63;;;11.43;;
14599;SDS011;7386;45.586;12.854;2023-04-24T00:56:33;18.27;;;10.60;;
14599;SDS011;7386;45.586;12.854;2023-04-24T00:59:01;17.27;;;10.90;;
14599;SDS011;7386;45.586;12.854;2023-04-24T01:01:30;18.87;;;11.47;;
14599;SDS011;7386;45.586;12.854;2023-04-24T01:04:00;19.17;;;11.63;;
14599;SDS011;7386;45.586;12.854;2023-04-24T01:06:29;22.90;;;12.00;;
14599;SDS011;7386;45.586;12.854;2023-04-24T01:08:58;25.87;;;12.13;;
14599;SDS011;7386;45.586;12.854;2023-04-24T01:11:27;22.13;;;12.53;;
14599;SDS011;7386;45.586;12.854;2023-04-24T01:13:57;22.43;;;12.63;;
14599;SDS011;7386;45.586;12.854;2023-04-24T01:16:26;27.50;;;13.50;;
14599;SDS011;7386;45.586;12.854;2023-04-24T01:18:54;23.83;;;14.17;;
14599;SDS011;7386;45.586;12.854;2023-04-24T01:21:23;25.10;;;13.27;;
14599;SDS011;7386;45.586;12.854;2023-04-24T01:23:55;23.63;;;13.47;;
14599;SDS011;7386;45.586;12.854;2023-04-24T01:26:23;24.53;;;13.87;;
14599;SDS011;7386;45.586;12.854;2023-04-24T01:28:52;23.43;;;13.10;;
14599;SDS011;7386;45.586;12.854;2023-04-24T01:31:21;28.73;;;15.07;;
14599;SDS011;7386;45.586;12.854;2023-04-24T01:33:50;23.83;;;13.00;;
14599;SDS011;7386;45.586;12.854;2023-04-24T01:36:19;24.77;;;13.53;;
14599;SDS011;7386;45.586;12.854;2023-04-24T01:38:50;29.80;;;14.20;;
14599;SDS011;7386;45.586;12.854;2023-04-24T01:41:20;31.10;;;15.10;;
14599;SDS011;7386;45.586;12.854;2023-04-24T01:43:49;31.20;;;13.73;;
14599;SDS011;7386;45.586;12.854;2023-04-24T01:46:17;27.87;;;13.93;;
14599;SDS011;7386;45.586;12.854;2023-04-24T01:48:46;23.80;;;13.20;;
14599;SDS011;7386;45.586;12.854;2023-04-24T01:51:14;25.60;;;13.70;;
14599;SDS011;7386;45.586;12.854;2023-04-24T01:53:43;29.93;;;13.27;;
14599;SDS011;7386;45.586;12.854;2023-04-24T01:56:11;26.57;;;13.27;;
14599;SDS011;7386;45.586;12.854;2023-04-24T01:58:41;32.40;;;13.97;;
14599;SDS011;7386;45.586;12.854;2023-04-24T02:01:10;31.83;;;13.70;;
14599;SDS011;7386;45.586;12.854;2023-04-24T02:03:43;29.80;;;13.27;;
14599;SDS011;7386;45.586;12.854;2023-04-24T02:06:11;29.67;;;14.13;;
14599;SDS011;7386;45.586;12.854;2023-04-24T02:08:40;31.07;;;14.47;;
14599;SDS011;7386;45.586;12.854;2023-04-24T02:11:08;27.97;;;13.93;;
14599;SDS011;7386;45.586;12.854;2023-04-24T02:13:37;28.80;;;14.23;;
14599;SDS011;7386;45.586;12.854;2023-04-24T02:16:07;35.17;;;14.90;;
14599;SDS011;7386;45.586;12.854;2023-04-24T02:18:35;26.03;;;14.10;;
14599;SDS011;7386;45.586;12.854;2023-04-24T02:21:04;30.23;;;13.83;;
14599;SDS011;7386;45.586;12.854;2023-04-24T02:23:32;30.67;;;15.03;;
14599;SDS011;7386;45.586;12.854;2023-04-24T02:26:01;29.67;;;14.67;;
14599;SDS011;7386;45.586;12.854;2023-04-24T02:28:29;30.20;;;14.70;;
14599;SDS011;7386;45.586;12.854;2023-04-24T02:30:58;29.50;;;14.60;;
14599;SDS011;7386;45.586;12.854;2023-04-24T02:33:28;30.80;;;14.63;;
14599;SDS011;7386;45.586;12.854;2023-04-24T02:35:57;30.80;;;14.70;;
14599;SDS011;7386;45.586;12.854;2023-04-24T02:38:25;30.17;;;14.20;;
14599;SDS011;7386;45.586;12.854;2023-04-24T02:40:54;27.70;;;14.37;;
14599;SDS011;7386;45.586;12.854;2023-04-24T02:43:22;30.77;;;14.17;;
14599;SDS011;7386;45.586;12.854;2023-04-24T02:45:51;31.13;;;13.87;;
14599;SDS011;7386;45.586;12.854;2023-04-24T02:48:19;26.17;;;13.10;;
14599;SDS011;7386;45.586;12.854;2023-04-24T02:50:49;31.40;;;13.23;;
14599;SDS011;7386;45.586;12.854;2023-04-24T02:53:18;27.17;;;13.43;;
14599;SDS011;7386;45.586;12.854;2023-04-24T02:55:46;25.67;;;13.57;;
14599;SDS011;7386;45.586;12.854;2023-04-24T02:58:15;29.53;;;12.70;;
14599;SDS011;7386;45.586;12.854;2023-04-24T03:00:43;28.37;;;13.10;;
14599;SDS011;7386;45.586;12.854;2023-04-24T03:03:12;23.20;;;12.63;;
14599;SDS011;7386;45.586;12.854;2023-04-24T03:05:41;29.00;;;12.50;;
14599;SDS011;7386;45.586;12.854;2023-04-24T03:08:11;26.17;;;11.83;;
14599;SDS011;7386;45.586;12.854;2023-04-24T03:10:40;24.07;;;11.63;;
14599;SDS011;7386;45.586;12.854;2023-04-24T03:13:11;26.43;;;10.53;;
14599;SDS011;7386;45.586;12.854;2023-04-24T03:15:39;20.77;;;10.40;;
14599;SDS011;7386;45.586;12.854;2023-04-24T03:18:08;22.90;;;10.20;;
14599;SDS011;7386;45.586;12.854;2023-04-24T03:20:37;23.73;;;9.90;;
14599;SDS011;7386;45.586;12.854;2023-04-24T03:23:05;23.87;;;9.67;;
14599;SDS011;7386;45.586;12.854;2023-04-24T03:25:35;21.50;;;9.03;;
14599;SDS011;7386;45.586;12.854;2023-04-24T03:28:03;20.63;;;8.97;;
14599;SDS011;7386;45.586;12.854;2023-04-24T03:30:32;18.00;;;8.57;;
14599;SDS011;7386;45.586;12.854;2023-04-24T03:33:00;17.73;;;8.90;;
14599;SDS011;7386;45.586;12.854;2023-04-24T03:35:29;13.47;;;8.37;;
14599;SDS011;7386;45.586;12.854;2023-04-24T03:37:57;16.93;;;9.00;;
14599;SDS011;7386;45.586;12.854;2023-04-24T03:40:26;17.23;;;9.10;;
14599;SDS011;7386;45.586;12.854;2023-04-24T03:42:57;13.07;;;9.10;;
14599;SDS011;7386;45.586;12.854;2023-04-24T03:45:25;18.13;;;9.87;;
14599;SDS011;7386;45.586;12.854;2023-04-24T03:47:54;20.07;;;10.20;;
14599;SDS011;7386;45.586;12.854;2023-04-24T03:50:22;17.40;;;10.07;;
14599;SDS011;7386;45.586;12.854;2023-04-24T03:52:52;18.00;;;10.17;;
14599;SDS011;7386;45.586;12.854;2023-04-24T03:55:21;13.27;;;9.63;;
14599;SDS011;7386;45.586;12.854;2023-04-24T03:57:49;14.13;;;9.57;;
14599;SDS011;7386;45.586;12.854;2023-04-24T04:00:19;14.00;;;10.93;;
14599;SDS011;7386;45.586;12.854;2023-04-24T04:02:48;16.23;;;10.77;;
14599;SDS011;7386;45.586;12.854;2023-04-24T04:05:16;14.77;;;10.67;;
14599;SDS011;7386;45.586;12.854;2023-04-24T04:07:45;15.80;;;10.97;;
14599;SDS011;7386;45.586;12.854;2023-04-24T04:10:13;15.97;;;11.00;;
14599;SDS011;7386;45.586;12.854;2023-04-24T04:12:43;15.33;;;11.20;;
14599;SDS011;7386;45.586;12.854;2023-04-24T04:15:12;14.40;;;11.40;;
14599;SDS011;7386;45.586;12.854;2023-04-24T04:17:41;14.07;;;10.77;;
14599;SDS011;7386;45.586;12.854;2023-04-24T04:20:10;14.30;;;11.37;;
14599;SDS011;7386;45.586;12.854;2023-04-24T04:22:39;13.53;;;10.57;;
14599;SDS011;7386;45.586;12.854;2023-04-24T04:25:10;14.27;;;11.20;;
14599;SDS011;7386;45.586;12.854;2023-04-24T04:27:40;17.50;;;11.37;;
14599;SDS011;7386;45.586;12.854;2023-04-24T04:30:09;17.20;;;11.33;;
14599;SDS011;7386;45.586;12.854;2023-04-24T04:32:37;18.07;;;11.57;;
14599;SDS011;7386;45.586;12.854;2023-04-24T04:35:07;15.53;;;11.20;;
14599;SDS011;7386;45.586;12.854;2023-04-24T04:37:36;19.40;;;10.90;;
14599;SDS011;7386;45.586;12.854;2023-04-24T04:40:05;16.10;;;10.07;;
14599;SDS011;7386;45.586;12.854;2023-04-24T04:42:34;13.30;;;10.00;;
14599;SDS011;7386;45.586;12.854;2023-04-24T04:45:02;16.27;;;9.43;;
14599;SDS011;7386;45.586;12.854;2023-04-24T04:47:31;12.00;;;8.47;;
14599;SDS011;7386;45.586;12.854;2023-04-24T04:50:00;13.10;;;9.17;;
14599;SDS011;7386;45.586;12.854;2023-04-24T04:52:31;16.30;;;9.97;;
14599;SDS011;7386;45.586;12.854;2023-04-24T04:54:59;12.83;;;9.83;;
14599;SDS011;7386;45.586;12.854;2023-04-24T04:57:28;15.50;;;9.90;;
14599;SDS011;7386;45.586;12.854;2023-04-24T04:59:57;13.53;;;9.10;;
14599;SDS011;7386;45.586;12.854;2023-04-24T05:02:25;14.33;;;9.67;;
14599;SDS011;7386;45.586;12.854;2023-04-24T05:04:53;14.37;;;9.10;;
14599;SDS011;7386;45.586;12.854;2023-04-24T05:07:22;13.03;;;9.40;;
14599;SDS011;7386;45.586;12.854;2023-04-24T05:09:52;13.00;;;9.90;;
14599;SDS011;7386;45.586;12.854;2023-04-24T05:12:21;15.63;;;10.00;;
14599;SDS011;7386;45.586;12.854;2023-04-24T05:14:49;11.53;;;9.77;;
14599;SDS011;7386;45.586;12.854;2023-04-24T05:17:18;13.87;;;10.10;;
14599;SDS011;7386;45.586;12.854;2023-04-24T05:19:46;14.20;;;10.77;;
14599;SDS011;7386;45.586;12.854;2023-04-24T05:22:15;15.60;;;11.23;;
14599;SDS011;7386;45.586;12.854;2023-04-24T05:24:44;16.87;;;11.67;;
14599;SDS011;7386;45.586;12.854;2023-04-24T05:27:15;19.43;;;11.77;;
14599;SDS011;7386;45.586;12.854;2023-04-24T05:29:43;17.47;;;11.77;;
14599;SDS011;7386;45.586;12.854;2023-04-24T05:32:12;15.50;;;10.77;;
14599;SDS011;7386;45.586;12.854;2023-04-24T05:34:40;16.27;;;11.07;;
14599;SDS011;7386;45.586;12.854;2023-04-24T05:37:09;15.77;;;10.43;;
14599;SDS011;7386;45.586;12.854;2023-04-24T05:39:37;14.83;;;10.07;;
14599;SDS011;7386;45.586;12.854;2023-04-24T05:42:07;16.47;;;10.90;;
14599;SDS011;7386;45.586;12.854;2023-04-24T05:44:37;15.07;;;10.03;;
14599;SDS011;7386;45.586;12.854;2023-04-24T05:47:06;16.07;;;10.97;;
14599;SDS011;7386;45.586;12.854;2023-04-24T05:49:34;16.03;;;11.03;;
14599;SDS011;7386;45.586;12.854;2023-04-24T05:52:03;17.13;;;11.30;;
14599;SDS011;7386;45.586;12.854;2023-04-24T05:54:32;18.30;;;11.60;;
14599;SDS011;7386;45.586;12.854;2023-04-24T05:57:01;20.17;;;10.57;;
14599;SDS011;7386;45.586;12.854;2023-04-24T05:59:33;16.07;;;10.30;;
14599;SDS011;7386;45.586;12.854;2023-04-24T06:02:03;20.70;;;10.20;;
14599;SDS011;7386;45.586;12.854;2023-04-24T06:04:32;13.67;;;9.50;;
14599;SDS011;7386;45.586;12.854;2023-04-24T06:07:01;17.13;;;8.70;;
14599;SDS011;7386;45.586;12.854;2023-04-24T06:09:29;13.70;;;8.90;;
14599;SDS011;7386;45.586;12.854;2023-04-24T06:11:58;13.80;;;8.53;;
14599;SDS011;7386;45.586;12.854;2023-04-24T06:14:27;14.23;;;8.83;;
14599;SDS011;7386;45.586;12.854;2023-04-24T06:16:55;12.43;;;8.77;;
14599;SDS011;7386;45.586;12.854;2023-04-24T06:19:25;10.93;;;7.97;;
14599;SDS011;7386;45.586;12.854;2023-04-24T06:21:54;11.57;;;8.17;;
14599;SDS011;7386;45.586;12.854;2023-04-24T06:24:24;12.30;;;8.90;;
14599;SDS011;7386;45.586;12.854;2023-04-24T06:26:55;13.57;;;8.40;;
14599;SDS011;7386;45.586;12.854;2023-04-24T06:29:25;11.53;;;8.53;;
14599;SDS011;7386;45.586;12.854;2023-04-24T06:31:53;11.00;;;8.50;;
14599;SDS011;7386;45.586;12.854;2023-04-24T06:34:22;13.37;;;8.90;;
14599;SDS011;7386;45.586;12.854;2023-04-24T06:36:52;13.87;;;9.03;;
14599;SDS011;7386;45.586;12.854;2023-04-24T06:39:20;13.43;;;10.20;;
14599;SDS011;7386;45.586;12.854;2023-04-24T06:41:48;13.10;;;8.97;;
14599;SDS011;7386;45.586;12.854;2023-04-24T06:44:17;11.47;;;7.53;;
14599;SDS011;7386;45.586;12.854;2023-04-24T06:46:45;12.73;;;8.93;;
14599;SDS011;7386;45.586;12.854;2023-04-24T06:49:14;15.83;;;9.50;;
14599;SDS011;7386;45.586;12.854;2023-04-24T06:51:43;10.80;;;8.77;;
14599;SDS011;7386;45.586;12.854;2023-04-24T06:54:13;15.40;;;10.50;;
14599;SDS011;7386;45.586;12.854;2023-04-24T06:56:42;12.50;;;9.20;;
14599;SDS011;7386;45.586;12.854;2023-04-24T06:59:12;13.70;;;8.30;;
14599;SDS011;7386;45.586;12.854;2023-04-24T07:01:40;13.77;;;9.73;;
14599;SDS011;7386;45.586;12.854;2023-04-24T07:04:09;11.00;;;7.97;;
14599;SDS011;7386;45.586;12.854;2023-04-24T07:06:38;13.63;;;9.60;;
14599;SDS011;7386;45.586;12.854;2023-04-24T07:09:07;11.47;;;9.20;;
14599;SDS011;7386;45.586;12.854;2023-04-24T07:11:37;16.13;;;9.13;;
14599;SDS011;7386;45.586;12.854;2023-04-24T07:14:07;16.07;;;10.27;;
14599;SDS011;7386;45.586;12.854;2023-04-24T07:16:36;14.30;;;9.10;;
14599;SDS011;7386;45.586;12.854;2023-04-24T07:19:04;13.40;;;9.13;;
14599;SDS011;7386;45.586;12.854;2023-04-24T07:21:33;16.27;;;9.40;;
14599;SDS011;7386;45.586;12.854;2023-04-24T07:24:01;15.47;;;8.43;;
14599;SDS011;7386;45.586;12.854;2023-04-24T07:26:30;19.57;;;9.20;;
14599;SDS011;7386;45.586;12.854;2023-04-24T07:29:00;13.70;;;7.97;;
14599;SDS011;7386;45.586;12.854;2023-04-24T07:31:29;12.98;;;8.10;;
14599;SDS011;7386;45.586;12.854;2023-04-24T07:33:58;21.63;;;10.07;;
14599;SDS011;7386;45.586;12.854;2023-04-24T07:36:26;13.13;;;9.50;;
14599;SDS011;7386;45.586;12.854;2023-04-24T07:38:55;13.30;;;7.97;;
14599;SDS011;7386;45.586;12.854;2023-04-24T07:41:24;15.17;;;9.63;;
14599;SDS011;7386;45.586;12.854;2023-04-24T07:43:54;14.93;;;9.10;;
14599;SDS011;7386;45.586;12.854;2023-04-24T07:46:24;10.53;;;7.80;;
14599;SDS011;7386;45.586;12.854;2023-04-24T07:48:56;14.17;;;9.47;;
14599;SDS011;7386;45.586;12.854;2023-04-24T07:51:39;12.10;;;7.97;;
14599;SDS011;7386;45.586;12.854;2023-04-24T07:54:08;12.37;;;8.07;;
14599;SDS011;7386;45.586;12.854;2023-04-24T07:56:36;13.87;;;8.70;;
14599;SDS011;7386;45.586;12.854;2023-04-24T07:59:05;12.63;;;8.57;;
14599;SDS011;7386;45.586;12.854;2023-04-24T08:01:35;15.27;;;8.17;;
14599;SDS011;7386;45.586;12.854;2023-04-24T08:04:04;14.23;;;7.70;;
14599;SDS011;7386;45.586;12.854;2023-04-24T08:06:33;9.87;;;7.23;;
14599;SDS011;7386;45.586;12.854;2023-04-24T08:09:01;9.50;;;7.17;;
14599;SDS011;7386;45.586;12.854;2023-04-24T08:11:30;13.93;;;7.60;;
14599;SDS011;7386;45.586;12.854;2023-04-24T08:13:59;17.97;;;8.27;;
14599;SDS011;7386;45.586;12.854;2023-04-24T08:16:27;11.20;;;7.30;;
14599;SDS011;7386;45.586;12.854;2023-04-24T08:18:57;15.47;;;8.33;;
14599;SDS011;7386;45.586;12.854;2023-04-24T08:21:26;12.33;;;7.70;;
14599;SDS011;7386;45.586;12.854;2023-04-24T08:23:54;11.40;;;7.00;;
14599;SDS011;7386;45.586;12.854;2023-04-24T08:26:23;11.37;;;7.37;;
14599;SDS011;7386;45.586;12.854;2023-04-24T08:28:51;13.63;;;7.70;;
14599;SDS011;7386;45.586;12.854;2023-04-24T08:31:20;9.60;;;6.10;;
14599;SDS011;7386;45.586;12.854;2023-04-24T08:33:49;12.30;;;7.90;;
14599;SDS011;7386;45.586;12.854;2023-04-24T08:36:19;13.40;;;7.77;;
14599;SDS011;7386;45.586;12.854;2023-04-24T08:38:50;10.40;;;6.90;;
14599;SDS011;7386;45.586;12.854;2023-04-24T08:41:18;11.38;;;7.32;;
14599;SDS011;7386;45.586;12.854;2023-04-24T08:43:47;15.73;;;8.57;;
14599;SDS011;7386;45.586;12.854;2023-04-24T08:46:16;10.60;;;6.63;;
14599;SDS011;7386;45.586;12.854;2023-04-24T08:48:44;11.70;;;8.00;;
14599;SDS011;7386;45.586;12.854;2023-04-24T08:51:13;11.73;;;8.10;;
14599;SDS011;7386;45.586;12.854;2023-04-24T08:53:43;15.47;;;7.10;;
14599;SDS011;7386;45.586;12.854;2023-04-24T08:56:11;12.95;;;8.10;;
14599;SDS011;7386;45.586;12.854;2023-04-24T08:58:40;17.23;;;7.47;;
14599;SDS011;7386;45.586;12.854;2023-04-24T09:01:08;11.27;;;7.10;;
14599;SDS011;7386;45.586;12.854;2023-04-24T09:03:37;13.33;;;7.23;;
14599;SDS011;7386;45.586;12.854;2023-04-24T09:06:06;13.60;;;7.70;;
14599;SDS011;7386;45.586;12.854;2023-04-24T09:08:36;14.70;;;7.27;;
14599;SDS011;7386;45.586;12.854;2023-04-24T09:11:07;16.70;;;7.97;;
14599;SDS011;7386;45.586;12.854;2023-04-24T09:13:36;12.50;;;7.53;;
14599;SDS011;7386;45.586;12.854;2023-04-24T09:16:04;10.60;;;6.40;;
14599;SDS011;7386;45.586;12.854;2023-04-24T09:18:33;10.43;;;7.05;;
14599;SDS011;7386;45.586;12.854;2023-04-24T09:21:02;10.73;;;6.80;;
14599;SDS011;7386;45.586;12.854;2023-04-24T09:23:31;10.23;;;6.93;;
14599;SDS011;7386;45.586;12.854;2023-04-24T09:26:00;11.03;;;7.13;;
14599;SDS011;7386;45.586;12.854;2023-04-24T09:28:32;10.38;;;6.18;;
14599;SDS011;7386;45.586;12.854;2023-04-24T09:31:07;9.43;;;6.30;;
14599;SDS011;7386;45.586;12.854;2023-04-24T09:33:36;9.37;;;6.50;;
14599;SDS011;7386;45.586;12.854;2023-04-24T09:36:05;9.48;;;6.45;;
14599;SDS011;7386;45.586;12.854;2023-04-24T09:38:35;11.52;;;6.70;;
14599;SDS011;7386;45.586;12.854;2023-04-24T09:41:04;12.18;;;6.50;;
14599;SDS011;7386;45.586;12.854;2023-04-24T09:43:34;10.88;;;6.90;;
14599;SDS011;7386;45.586;12.854;2023-04-24T09:46:06;11.30;;;7.03;;
14599;SDS011;7386;45.586;12.854;2023-04-24T09:48:36;14.20;;;7.23;;
14599;SDS011;7386;45.586;12.854;2023-04-24T09:51:06;14.20;;;7.73;;
14599;SDS011;7386;45.586;12.854;2023-04-24T09:53:37;14.67;;;7.07;;
14599;SDS011;7386;45.586;12.854;2023-04-24T09:56:07;14.47;;;6.50;;
14599;SDS011;7386;45.586;12.854;2023-04-24T09:58:37;9.83;;;6.40;;
14599;SDS011;7386;45.586;12.854;2023-04-24T10:01:06;8.23;;;6.10;;
14599;SDS011;7386;45.586;12.854;2023-04-24T10:03:35;9.53;;;5.93;;
14599;SDS011;7386;45.586;12.854;2023-04-24T10:06:04;10.33;;;6.40;;
14599;SDS011;7386;45.586;12.854;2023-04-24T10:08:35;8.73;;;5.83;;
14599;SDS011;7386;45.586;12.854;2023-04-24T10:11:05;7.23;;;5.13;;
14599;SDS011;7386;45.586;12.854;2023-04-24T10:13:34;8.52;;;5.97;;
14599;SDS011;7386;45.586;12.854;2023-04-24T10:16:04;7.87;;;5.77;;
14599;SDS011;7386;45.586;12.854;2023-04-24T10:18:33;15.23;;;7.67;;
14599;SDS011;7386;45.586;12.854;2023-04-24T10:21:02;14.77;;;7.60;;
14599;SDS011;7386;45.586;12.854;2023-04-24T10:23:31;8.30;;;6.30;;
14599;SDS011;7386;45.586;12.854;2023-04-24T10:26:00;12.80;;;6.93;;
14599;SDS011;7386;45.586;12.854;2023-04-24T10:28:29;11.47;;;6.67;;
14599;SDS011;7386;45.586;12.854;2023-04-24T10:30:59;7.63;;;5.77;;
14599;SDS011;7386;45.586;12.854;2023-04-24T10:33:29;8.40;;;5.47;;
14599;SDS011;7386;45.586;12.854;2023-04-24T10:35:58;7.80;;;5.27;;
14599;SDS011;7386;45.586;12.854;2023-04-24T10:38:27;6.93;;;4.93;;
14599;SDS011;7386;45.586;12.854;2023-04-24T10:40:57;6.82;;;4.97;;
14599;SDS011;7386;45.586;12.854;2023-04-24T10:43:26;6.90;;;4.53;;
14599;SDS011;7386;45.586;12.854;2023-04-24T10:46:00;6.95;;;4.93;;
14599;SDS011;7386;45.586;12.854;2023-04-24T10:48:31;6.28;;;4.40;;
14599;SDS011;7386;45.586;12.854;2023-04-24T10:50:59;7.10;;;4.75;;
14599;SDS011;7386;45.586;12.854;2023-04-24T10:53:28;5.78;;;4.60;;
14599;SDS011;7386;45.586;12.854;2023-04-24T10:55:58;5.93;;;4.40;;
14599;SDS011;7386;45.586;12.854;2023-04-24T10:58:35;8.07;;;5.32;;
14599;SDS011;7386;45.586;12.854;2023-04-24T11:01:04;6.33;;;4.40;;
14599;SDS011;7386;45.586;12.854;2023-04-24T11:03:34;8.68;;;4.72;;
14599;SDS011;7386;45.586;12.854;2023-04-24T11:06:04;4.47;;;3.83;;
14599;SDS011;7386;45.586;12.854;2023-04-24T11:08:37;5.77;;;3.40;;
14599;SDS011;7386;45.586;12.854;2023-04-24T11:11:09;3.63;;;2.97;;
14599;SDS011;7386;45.586;12.854;2023-04-24T11:16:25;6.57;;;3.20;;
14599;SDS011;7386;45.586;12.854;2023-04-24T11:19:01;3.73;;;3.07;;
14599;SDS011;7386;45.586;12.854;2023-04-24T11:21:39;5.90;;;3.03;;
14599;SDS011;7386;45.586;12.854;2023-04-24T11:24:27;3.80;;;2.50;;
14599;SDS011;7386;45.586;12.854;2023-04-24T11:26:58;4.23;;;2.60;;
14599;SDS011;7386;45.586;12.854;2023-04-24T11:32:14;6.23;;;2.33;;
14599;SDS011;7386;45.586;12.854;2023-04-24T11:34:47;2.87;;;2.10;;
14599;SDS011;7386;45.586;12.854;2023-04-24T11:37:15;2.90;;;2.07;;
14599;SDS011;7386;45.586;12.854;2023-04-24T11:39:44;2.97;;;2.23;;
14599;SDS011;7386;45.586;12.854;2023-04-24T11:42:13;3.33;;;2.10;;
14599;SDS011;7386;45.586;12.854;2023-04-24T11:44:42;2.97;;;2.33;;
14599;SDS011;7386;45.586;12.854;2023-04-24T11:47:13;4.03;;;2.30;;
14599;SDS011;7386;45.586;12.854;2023-04-24T11:49:42;2.70;;;2.10;;
14599;SDS011;7386;45.586;12.854;2023-04-24T11:52:12;2.83;;;2.10;;
14599;SDS011;7386;45.586;12.854;2023-04-24T11:54:47;3.43;;;2.30;;
14599;SDS011;7386;45.586;12.854;2023-04-24T11:57:18;3.57;;;2.33;;
14599;SDS011;7386;45.586;12.854;2023-04-24T11:59:48;5.63;;;2.90;;
14599;SDS011;7386;45.586;12.854;2023-04-24T12:02:20;3.20;;;2.80;;
14599;SDS011;7386;45.586;12.854;2023-04-24T12:04:49;3.27;;;2.63;;
14599;SDS011;7386;45.586;12.854;2023-04-24T12:07:19;3.67;;;2.80;;
14599;SDS011;7386;45.586;12.854;2023-04-24T12:09:48;2.70;;;2.50;;
14599;SDS011;7386;45.586;12.854;2023-04-24T12:12:18;6.23;;;2.70;;
14599;SDS011;7386;45.586;12.854;2023-04-24T12:14:49;4.43;;;3.03;;
14599;SDS011;7386;45.586;12.854;2023-04-24T12:17:23;4.73;;;3.03;;
14599;SDS011;7386;45.586;12.854;2023-04-24T12:19:57;4.57;;;3.07;;
14599;SDS011;7386;45.586;12.854;2023-04-24T12:22:27;5.60;;;3.27;;
14599;SDS011;7386;45.586;12.854;2023-04-24T12:24:57;5.50;;;3.43;;
14599;SDS011;7386;45.586;12.854;2023-04-24T12:27:25;4.57;;;3.57;;
14599;SDS011;7386;45.586;12.854;2023-04-24T12:29:55;4.10;;;3.37;;
14599;SDS011;7386;45.586;12.854;2023-04-24T12:32:24;4.00;;;3.57;;
14599;SDS011;7386;45.586;12.854;2023-04-24T12:34:54;4.37;;;3.23;;
14599;SDS011;7386;45.586;12.854;2023-04-24T12:37:23;5.03;;;3.30;;
14599;SDS011;7386;45.586;12.854;2023-04-24T12:40:00;4.80;;;3.23;;
14599;SDS011;7386;45.586;12.854;2023-04-24T12:42:29;5.53;;;3.70;;
14599;SDS011;7386;45.586;12.854;2023-04-24T12:44:58;5.70;;;4.13;;
14599;SDS011;7386;45.586;12.854;2023-04-24T12:47:27;4.40;;;3.50;;
14599;SDS011;7386;45.586;12.854;2023-04-24T12:49:56;6.80;;;4.20;;
14599;SDS011;7386;45.586;12.854;2023-04-24T12:52:25;6.93;;;4.10;;
14599;SDS011;7386;45.586;12.854;2023-04-24T12:54:54;5.73;;;4.27;;
14599;SDS011;7386;45.586;12.854;2023-04-24T12:57:24;7.07;;;4.77;;
14599;SDS011;7386;45.586;12.854;2023-04-24T12:59:53;4.80;;;4.23;;
14599;SDS011;7386;45.586;12.854;2023-04-24T13:02:22;8.17;;;5.23;;
14599;SDS011;7386;45.586;12.854;2023-04-24T13:04:51;8.80;;;4.93;;
14599;SDS011;7386;45.586;12.854;2023-04-24T13:07:20;6.20;;;4.90;;
14599;SDS011;7386;45.586;12.854;2023-04-24T13:09:49;6.27;;;5.10;;
14599;SDS011;7386;45.586;12.854;2023-04-24T13:12:18;6.40;;;4.97;;
14599;SDS011;7386;45.586;12.854;2023-04-24T13:14:47;10.27;;;5.17;;
14599;SDS011;7386;45.586;12.854;2023-04-24T13:17:16;6.33;;;4.30;;
14599;SDS011;7386;45.586;12.854;2023-04-24T13:19:45;6.17;;;4.50;;
14599;SDS011;7386;45.586;12.854;2023-04-24T13:22:14;5.37;;;3.77;;
14599;SDS011;7386;45.586;12.854;2023-04-24T13:24:43;6.57;;;4.20;;
14599;SDS011;7386;45.586;12.854;2023-04-24T13:27:14;5.17;;;4.00;;
14599;SDS011;7386;45.586;12.854;2023-04-24T13:29:43;5.23;;;3.87;;
14599;SDS011;7386;45.586;12.854;2023-04-24T13:32:13;7.73;;;4.30;;
14599;SDS011;7386;45.586;12.854;2023-04-24T13:34:42;5.27;;;3.80;;
14599;SDS011;7386;45.586;12.854;2023-04-24T13:37:10;6.00;;;3.70;;
14599;SDS011;7386;45.586;12.854;2023-04-24T13:39:39;4.80;;;3.43;;
14599;SDS011;7386;45.586;12.854;2023-04-24T13:42:08;4.33;;;3.70;;
14599;SDS011;7386;45.586;12.854;2023-04-24T13:44:37;4.20;;;3.27;;
14599;SDS011;7386;45.586;12.854;2023-04-24T13:47:05;4.90;;;3.30;;
14599;SDS011;7386;45.586;12.854;2023-04-24T13:49:35;5.17;;;3.30;;
14599;SDS011;7386;45.586;12.854;2023-04-24T13:52:04;4.17;;;3.27;;
14599;SDS011;7386;45.586;12.854;2023-04-24T13:54:32;4.10;;;3.07;;
14599;SDS011;7386;45.586;12.854;2023-04-24T13:57:01;3.77;;;2.83;;
14599;SDS011;7386;45.586;12.854;2023-04-24T13:59:29;3.80;;;2.80;;
14599;SDS011;7386;45.586;12.854;2023-04-24T14:01:58;4.53;;;2.90;;
14599;SDS011;7386;45.586;12.854;2023-04-24T14:04:26;3.40;;;3.07;;
14599;SDS011;7386;45.586;12.854;2023-04-24T14:06:57;3.83;;;3.00;;
14599;SDS011;7386;45.586;12.854;2023-04-24T14:09:25;2.93;;;2.60;;
14599;SDS011;7386;45.586;12.854;2023-04-24T14:11:54;3.10;;;2.63;;
14599;SDS011;7386;45.586;12.854;2023-04-24T14:14:22;2.87;;;2.57;;
14599;SDS011;7386;45.586;12.854;2023-04-24T14:16:51;3.80;;;2.67;;
14599;SDS011;7386;45.586;12.854;2023-04-24T14:19:19;2.43;;;2.23;;
14599;SDS011;7386;45.586;12.854;2023-04-24T14:21:48;3.07;;;2.40;;
14599;SDS011;7386;45.586;12.854;2023-04-24T14:24:18;3.07;;;2.40;;
14599;SDS011;7386;45.586;12.854;2023-04-24T14:26:46;3.23;;;2.40;;
14599;SDS011;7386;45.586;12.854;2023-04-24T14:29:15;2.33;;;2.13;;
14599;SDS011;7386;45.586;12.854;2023-04-24T14:31:44;2.70;;;2.30;;
14599;SDS011;7386;45.586;12.854;2023-04-24T14:34:13;2.70;;;2.10;;
14599;SDS011;7386;45.586;12.854;2023-04-24T14:36:41;3.80;;;2.27;;
14599;SDS011;7386;45.586;12.854;2023-04-24T14:39:10;3.83;;;2.00;;
14599;SDS011;7386;45.586;12.854;2023-04-24T14:41:40;3.25;;;2.10;;
14599;SDS011;7386;45.586;12.854;2023-04-24T14:44:08;2.23;;;1.97;;
14599;SDS011;7386;45.586;12.854;2023-04-24T14:46:37;2.10;;;1.90;;
14599;SDS011;7386;45.586;12.854;2023-04-24T14:49:05;2.42;;;1.90;;
14599;SDS011;7386;45.586;12.854;2023-04-24T14:51:35;2.20;;;2.00;;